sensor_id;sensor_type;location;lat;lon;timestamp;pressure;altitude;pressure_sealevel;temperature;humidity
72525;BME280;60547;48.502;8.996;2023-03-22T00:01:24;97757.75;;;9.60;76.32
72525;BME280;60547;48.502;8.996;2023-03-22T00:03:50;97754.69;;;9.55;77.17
72525;BME280;60547;48.502;8.996;2023-03-22T00:06:17;97754.88;;;9.48;77.54
72525;BME280;60547;48.502;8.996;2023-03-22T00:08:43;97756.69;;;9.38;76.94
72525;BME280;60547;48.502;8.996;2023-03-22T00:11:10;97756.75;;;9.34;77.43
72525;BME280;60547;48.502;8.996;2023-03-22T00:13:36;97764.75;;;9.32;77.54
72525;BME280;60547;48.502;8.996;2023-03-22T00:16:03;97759.00;;;9.23;77.66
72525;BME280;60547;48.502;8.996;2023-03-22T00:18:29;97758.72;;;9.18;77.56
72525;BME280;60547;48.502;8.996;2023-03-22T00:20:57;97760.53;;;9.08;78.36
72525;BME280;60547;48.502;8.996;2023-03-22T00:23:24;97758.34;;;8.99;78.58
72525;BME280;60547;48.502;8.996;2023-03-22T00:25:50;97754.44;;;8.97;78.47
72525;BME280;60547;48.502;8.996;2023-03-22T00:28:16;97758.25;;;9.03;78.51
72525;BME280;60547;48.502;8.996;2023-03-22T00:30:50;97752.88;;;8.96;78.54
72525;BME280;60547;48.502;8.996;2023-03-22T00:33:16;97747.47;;;8.89;79.11
72525;BME280;60547;48.502;8.996;2023-03-22T00:35:47;97747.34;;;8.76;79.33
72525;BME280;60547;48.502;8.996;2023-03-22T00:38:13;97761.44;;;8.65;79.54
72525;BME280;60547;48.502;8.996;2023-03-22T00:40:39;97740.59;;;8.57;79.25
72525;BME280;60547;48.502;8.996;2023-03-22T00:43:05;97754.19;;;8.71;78.92
72525;BME280;60547;48.502;8.996;2023-03-22T00:45:30;97748.63;;;8.71;79.41
72525;BME280;60547;48.502;8.996;2023-03-22T00:47:56;97748.84;;;8.61;79.15
72525;BME280;60547;48.502;8.996;2023-03-22T00:50:21;97749.63;;;8.61;79.29
72525;BME280;60547;48.502;8.996;2023-03-22T00:52:47;97737.81;;;8.57;79.39
72525;BME280;60547;48.502;8.996;2023-03-22T00:55:12;97735.91;;;8.54;79.16
72525;BME280;60547;48.502;8.996;2023-03-22T00:57:38;97730.00;;;8.52;79.92
72525;BME280;60547;48.502;8.996;2023-03-22T01:00:05;97736.03;;;8.47;79.95
72525;BME280;60547;48.502;8.996;2023-03-22T01:02:39;97725.53;;;8.38;79.39
72525;BME280;60547;48.502;8.996;2023-03-22T01:05:06;97725.69;;;8.28;79.82
72525;BME280;60547;48.502;8.996;2023-03-22T01:07:32;97725.06;;;8.20;79.87
72525;BME280;60547;48.502;8.996;2023-03-22T01:09:57;97721.84;;;8.22;79.95
72525;BME280;60547;48.502;8.996;2023-03-22T01:12:24;97726.13;;;8.26;79.53
72525;BME280;60547;48.502;8.996;2023-03-22T01:14:51;97727.75;;;8.24;79.80
72525;BME280;60547;48.502;8.996;2023-03-22T01:17:16;97724.28;;;8.20;79.45
72525;BME280;60547;48.502;8.996;2023-03-22T01:19:42;97712.53;;;8.12;79.88
72525;BME280;60547;48.502;8.996;2023-03-22T01:22:07;97714.31;;;8.02;79.89
72525;BME280;60547;48.502;8.996;2023-03-22T01:24:33;97709.38;;;7.90;80.61
72525;BME280;60547;48.502;8.996;2023-03-22T01:26:58;97701.56;;;7.85;80.59
72525;BME280;60547;48.502;8.996;2023-03-22T01:29:24;97714.69;;;7.81;80.61
72525;BME280;60547;48.502;8.996;2023-03-22T01:31:50;97720.22;;;7.81;79.99
72525;BME280;60547;48.502;8.996;2023-03-22T01:34:16;97710.06;;;7.74;80.74
72525;BME280;60547;48.502;8.996;2023-03-22T01:36:42;97711.34;;;7.70;80.75
72525;BME280;60547;48.502;8.996;2023-03-22T01:39:07;97703.25;;;7.56;81.31
72525;BME280;60547;48.502;8.996;2023-03-22T01:41:35;97706.03;;;7.56;81.00
72525;BME280;60547;48.502;8.996;2023-03-22T01:44:21;97704.09;;;7.53;81.17
72525;BME280;60547;48.502;8.996;2023-03-22T01:46:49;97698.69;;;7.45;80.98
72525;BME280;60547;48.502;8.996;2023-03-22T01:49:21;97690.91;;;7.37;80.55
72525;BME280;60547;48.502;8.996;2023-03-22T01:51:50;97707.53;;;7.37;81.49
72525;BME280;60547;48.502;8.996;2023-03-22T01:54:34;97702.16;;;7.26;80.99
72525;BME280;60547;48.502;8.996;2023-03-22T01:57:01;97694.28;;;7.25;81.58
72525;BME280;60547;48.502;8.996;2023-03-22T01:59:28;97699.69;;;7.32;81.27
72525;BME280;60547;48.502;8.996;2023-03-22T02:01:54;97705.19;;;7.35;80.80
72525;BME280;60547;48.502;8.996;2023-03-22T02:04:25;97698.13;;;7.31;80.67
72525;BME280;60547;48.502;8.996;2023-03-22T02:07:00;97691.94;;;7.23;81.63
72525;BME280;60547;48.502;8.996;2023-03-22T02:09:34;97685.09;;;7.04;82.07
72525;BME280;60547;48.502;8.996;2023-03-22T02:16:13;97679.84;;;6.87;82.80
72525;BME280;60547;48.502;8.996;2023-03-22T02:26:59;97681.78;;;6.90;82.27
72525;BME280;60547;48.502;8.996;2023-03-22T02:29:43;97689.69;;;6.88;82.82
72525;BME280;60547;48.502;8.996;2023-03-22T02:32:34;97681.81;;;6.86;83.24
72525;BME280;60547;48.502;8.996;2023-03-22T02:40:51;97670.13;;;6.75;82.09
72525;BME280;60547;48.502;8.996;2023-03-22T02:46:31;97667.66;;;6.54;82.15
72525;BME280;60547;48.502;8.996;2023-03-22T02:49:07;97674.47;;;6.45;83.44
72525;BME280;60547;48.502;8.996;2023-03-22T02:51:40;97671.78;;;6.42;83.78
72525;BME280;60547;48.502;8.996;2023-03-22T02:54:12;97680.34;;;6.51;83.41
72525;BME280;60547;48.502;8.996;2023-03-22T02:56:53;97681.53;;;6.50;83.18
72525;BME280;60547;48.502;8.996;2023-03-22T02:59:21;97678.03;;;6.46;82.85
72525;BME280;60547;48.502;8.996;2023-03-22T03:01:50;97684.38;;;6.43;82.84
72525;BME280;60547;48.502;8.996;2023-03-22T03:04:20;97688.72;;;6.44;83.35
72525;BME280;60547;48.502;8.996;2023-03-22T03:06:51;97687.25;;;6.36;83.32
72525;BME280;60547;48.502;8.996;2023-03-22T03:09:19;97682.81;;;6.42;83.08
72525;BME280;60547;48.502;8.996;2023-03-22T03:11:49;97682.50;;;6.36;83.07
72525;BME280;60547;48.502;8.996;2023-03-22T03:14:24;97677.44;;;6.31;83.35
72525;BME280;60547;48.502;8.996;2023-03-22T03:19:49;97681.44;;;6.27;83.81
72525;BME280;60547;48.502;8.996;2023-03-22T03:25:41;97688.31;;;6.11;84.64
72525;BME280;60547;48.502;8.996;2023-03-22T03:28:32;97688.72;;;6.10;84.09
72525;BME280;60547;48.502;8.996;2023-03-22T03:33:36;97689.25;;;5.98;83.41
72525;BME280;60547;48.502;8.996;2023-03-22T03:36:08;97696.06;;;5.86;83.88
72525;BME280;60547;48.502;8.996;2023-03-22T03:38:38;97695.69;;;5.84;83.80
72525;BME280;60547;48.502;8.996;2023-03-22T03:41:13;97698.06;;;5.82;83.72
72525;BME280;60547;48.502;8.996;2023-03-22T03:43:41;97691.81;;;5.78;83.70
72525;BME280;60547;48.502;8.996;2023-03-22T03:46:08;97693.81;;;5.74;84.11
72525;BME280;60547;48.502;8.996;2023-03-22T03:48:37;97702.50;;;5.72;84.12
72525;BME280;60547;48.502;8.996;2023-03-22T03:51:03;97706.88;;;5.70;84.53
72525;BME280;60547;48.502;8.996;2023-03-22T03:53:30;97707.25;;;5.72;84.21
72525;BME280;60547;48.502;8.996;2023-03-22T03:55:56;97707.31;;;5.65;84.30
72525;BME280;60547;48.502;8.996;2023-03-22T03:58:21;97702.63;;;5.62;84.21
72525;BME280;60547;48.502;8.996;2023-03-22T04:00:48;97699.47;;;5.60;84.81
72525;BME280;60547;48.502;8.996;2023-03-22T04:03:14;97714.09;;;5.57;84.71
72525;BME280;60547;48.502;8.996;2023-03-22T04:05:40;97714.50;;;5.55;84.96
72525;BME280;60547;48.502;8.996;2023-03-22T04:08:06;97722.38;;;5.57;85.00
72525;BME280;60547;48.502;8.996;2023-03-22T04:10:32;97701.94;;;5.50;85.10
72525;BME280;60547;48.502;8.996;2023-03-22T04:12:57;97718.47;;;5.50;85.19
72525;BME280;60547;48.502;8.996;2023-03-22T04:15:23;97713.72;;;5.55;84.91
72525;BME280;60547;48.502;8.996;2023-03-22T04:17:49;97703.53;;;5.48;84.73
72525;BME280;60547;48.502;8.996;2023-03-22T04:20:15;97702.00;;;5.43;84.96
72525;BME280;60547;48.502;8.996;2023-03-22T04:22:41;97703.56;;;5.44;84.98
72525;BME280;60547;48.502;8.996;2023-03-22T04:25:09;97707.16;;;5.38;85.79
72525;BME280;60547;48.502;8.996;2023-03-22T04:27:37;97705.97;;;5.39;85.68
72525;BME280;60547;48.502;8.996;2023-03-22T04:30:04;97693.78;;;5.36;85.62
72525;BME280;60547;48.502;8.996;2023-03-22T04:32:30;97697.34;;;5.33;85.51
72525;BME280;60547;48.502;8.996;2023-03-22T04:34:55;97690.22;;;5.36;85.70
72525;BME280;60547;48.502;8.996;2023-03-22T04:37:21;97690.63;;;5.34;84.85
72525;BME280;60547;48.502;8.996;2023-03-22T04:39:52;97692.16;;;5.42;85.18
72525;BME280;60547;48.502;8.996;2023-03-22T04:42:18;97678.44;;;5.32;85.14
72525;BME280;60547;48.502;8.996;2023-03-22T04:44:43;97685.50;;;5.36;84.89
72525;BME280;60547;48.502;8.996;2023-03-22T04:47:10;97686.66;;;5.39;84.94
72525;BME280;60547;48.502;8.996;2023-03-22T04:49:35;97680.03;;;5.29;85.02
72525;BME280;60547;48.502;8.996;2023-03-22T04:52:01;97669.00;;;5.29;85.18
72525;BME280;60547;48.502;8.996;2023-03-22T04:54:26;97682.38;;;5.34;85.13
72525;BME280;60547;48.502;8.996;2023-03-22T04:56:52;97682.38;;;5.31;84.94
72525;BME280;60547;48.502;8.996;2023-03-22T04:59:18;97673.03;;;5.17;85.44
72525;BME280;60547;48.502;8.996;2023-03-22T05:01:45;97676.97;;;5.20;85.40
72525;BME280;60547;48.502;8.996;2023-03-22T05:04:11;97667.94;;;5.16;84.91
72525;BME280;60547;48.502;8.996;2023-03-22T05:06:37;97663.28;;;5.06;85.41
72525;BME280;60547;48.502;8.996;2023-03-22T05:09:03;97665.22;;;5.09;85.17
72525;BME280;60547;48.502;8.996;2023-03-22T05:11:28;97664.53;;;4.98;85.61
72525;BME280;60547;48.502;8.996;2023-03-22T05:13:54;97663.72;;;5.01;86.22
72525;BME280;60547;48.502;8.996;2023-03-22T05:16:20;97674.75;;;5.01;85.58
72525;BME280;60547;48.502;8.996;2023-03-22T05:18:45;97658.25;;;4.94;86.13
72525;BME280;60547;48.502;8.996;2023-03-22T05:21:16;97661.41;;;4.96;86.45
72525;BME280;60547;48.502;8.996;2023-03-22T05:23:42;97664.16;;;4.96;85.88
72525;BME280;60547;48.502;8.996;2023-03-22T05:26:09;97653.94;;;4.93;85.54
72525;BME280;60547;48.502;8.996;2023-03-22T05:28:35;97662.97;;;4.97;85.46
72525;BME280;60547;48.502;8.996;2023-03-22T05:31:02;97655.13;;;4.92;84.99
72525;BME280;60547;48.502;8.996;2023-03-22T05:33:28;97661.75;;;5.01;85.04
72525;BME280;60547;48.502;8.996;2023-03-22T05:35:54;97654.31;;;4.95;84.55
72525;BME280;60547;48.502;8.996;2023-03-22T05:38:20;97666.84;;;5.03;84.45
72525;BME280;60547;48.502;8.996;2023-03-22T05:40:49;97665.25;;;5.05;83.88
72525;BME280;60547;48.502;8.996;2023-03-22T05:43:15;97652.34;;;4.95;84.83
72525;BME280;60547;48.502;8.996;2023-03-22T05:45:44;97657.88;;;4.92;85.30
72525;BME280;60547;48.502;8.996;2023-03-22T05:48:29;97648.13;;;4.80;85.69
72525;BME280;60547;48.502;8.996;2023-03-22T05:50:58;97635.59;;;4.68;85.49
72525;BME280;60547;48.502;8.996;2023-03-22T05:53:25;97656.03;;;4.74;85.87
72525;BME280;60547;48.502;8.996;2023-03-22T05:55:50;97655.59;;;4.79;85.32
72525;BME280;60547;48.502;8.996;2023-03-22T05:58:17;97652.84;;;4.79;85.77
72525;BME280;60547;48.502;8.996;2023-03-22T06:00:44;97642.69;;;4.66;86.69
72525;BME280;60547;48.502;8.996;2023-03-22T06:03:09;97651.31;;;4.71;87.05
72525;BME280;60547;48.502;8.996;2023-03-22T06:05:35;97640.69;;;4.73;87.08
72525;BME280;60547;48.502;8.996;2023-03-22T06:08:02;97655.19;;;4.81;86.72
72525;BME280;60547;48.502;8.996;2023-03-22T06:10:28;97639.81;;;4.83;86.34
72525;BME280;60547;48.502;8.996;2023-03-22T06:12:53;97656.59;;;5.07;86.25
72525;BME280;60547;48.502;8.996;2023-03-22T06:15:19;97653.38;;;5.12;86.23
72525;BME280;60547;48.502;8.996;2023-03-22T06:17:45;97650.97;;;5.17;86.11
72525;BME280;60547;48.502;8.996;2023-03-22T06:20:12;97661.47;;;5.33;86.05
72525;BME280;60547;48.502;8.996;2023-03-22T06:22:38;97662.09;;;5.51;85.48
72525;BME280;60547;48.502;8.996;2023-03-22T06:25:06;97667.06;;;5.67;84.88
72525;BME280;60547;48.502;8.996;2023-03-22T06:27:32;97669.28;;;5.83;84.44
72525;BME280;60547;48.502;8.996;2023-03-22T06:29:58;97665.94;;;6.02;83.58
72525;BME280;60547;48.502;8.996;2023-03-22T06:32:23;97674.50;;;6.11;83.29
72525;BME280;60547;48.502;8.996;2023-03-22T06:34:51;97677.56;;;6.21;83.32
72525;BME280;60547;48.502;8.996;2023-03-22T06:37:17;97671.22;;;6.24;82.78
72525;BME280;60547;48.502;8.996;2023-03-22T06:39:43;97685.59;;;6.42;82.02
72525;BME280;60547;48.502;8.996;2023-03-22T06:42:08;97685.44;;;6.53;80.90
72525;BME280;60547;48.502;8.996;2023-03-22T06:44:34;97675.13;;;6.57;80.72
72525;BME280;60547;48.502;8.996;2023-03-22T06:46:59;97694.75;;;6.66;80.79
72525;BME280;60547;48.502;8.996;2023-03-22T06:49:25;97687.19;;;6.70;80.38
72525;BME280;60547;48.502;8.996;2023-03-22T06:51:52;97686.78;;;6.71;81.44
72525;BME280;60547;48.502;8.996;2023-03-22T06:54:18;97687.00;;;6.84;81.21
72525;BME280;60547;48.502;8.996;2023-03-22T06:56:43;97685.47;;;7.06;80.54
72525;BME280;60547;48.502;8.996;2023-03-22T06:59:09;97688.22;;;7.33;79.78
72525;BME280;60547;48.502;8.996;2023-03-22T07:01:34;97696.41;;;7.40;79.82
72525;BME280;60547;48.502;8.996;2023-03-22T07:04:00;97690.44;;;7.65;79.53
72525;BME280;60547;48.502;8.996;2023-03-22T07:06:25;97684.38;;;7.51;79.75
72525;BME280;60547;48.502;8.996;2023-03-22T07:08:51;97684.72;;;7.76;79.52
72525;BME280;60547;48.502;8.996;2023-03-22T07:11:16;97676.22;;;8.06;78.37
72525;BME280;60547;48.502;8.996;2023-03-22T07:13:42;97677.31;;;8.32;77.35
72525;BME280;60547;48.502;8.996;2023-03-22T07:16:09;97677.81;;;8.47;77.02
72525;BME280;60547;48.502;8.996;2023-03-22T07:18:35;97675.94;;;8.60;76.34
72525;BME280;60547;48.502;8.996;2023-03-22T07:21:01;97672.53;;;8.72;75.74
72525;BME280;60547;48.502;8.996;2023-03-22T07:23:26;97682.28;;;8.97;74.75
72525;BME280;60547;48.502;8.996;2023-03-22T07:25:52;97663.03;;;9.06;73.98
72525;BME280;60547;48.502;8.996;2023-03-22T07:28:20;97669.03;;;9.21;73.57
72525;BME280;60547;48.502;8.996;2023-03-22T07:30:46;97663.56;;;9.33;72.81
72525;BME280;60547;48.502;8.996;2023-03-22T07:33:11;97672.75;;;9.47;72.48
72525;BME280;60547;48.502;8.996;2023-03-22T07:35:37;97674.50;;;9.57;71.14
72525;BME280;60547;48.502;8.996;2023-03-22T07:38:03;97670.31;;;9.65;71.21
72525;BME280;60547;48.502;8.996;2023-03-22T07:40:29;97669.28;;;9.59;71.27
72525;BME280;60547;48.502;8.996;2023-03-22T07:42:55;97678.28;;;9.79;70.82
72525;BME280;60547;48.502;8.996;2023-03-22T07:45:23;97674.84;;;9.59;71.51
72525;BME280;60547;48.502;8.996;2023-03-22T07:47:49;97661.06;;;9.84;71.47
72525;BME280;60547;48.502;8.996;2023-03-22T07:50:15;97671.91;;;9.95;71.58
72525;BME280;60547;48.502;8.996;2023-03-22T07:52:42;97676.00;;;10.19;70.30
72525;BME280;60547;48.502;8.996;2023-03-22T07:55:10;97672.91;;;10.46;68.96
72525;BME280;60547;48.502;8.996;2023-03-22T07:57:37;97667.28;;;10.33;68.08
72525;BME280;60547;48.502;8.996;2023-03-22T08:00:06;97664.09;;;10.19;68.10
72525;BME280;60547;48.502;8.996;2023-03-22T08:02:34;97665.94;;;10.67;67.72
72525;BME280;60547;48.502;8.996;2023-03-22T08:05:02;97661.59;;;10.91;67.10
72525;BME280;60547;48.502;8.996;2023-03-22T08:07:27;97664.06;;;11.02;65.64
72525;BME280;60547;48.502;8.996;2023-03-22T08:09:54;97660.38;;;11.30;64.38
72525;BME280;60547;48.502;8.996;2023-03-22T08:12:23;97653.34;;;11.39;64.24
72525;BME280;60547;48.502;8.996;2023-03-22T08:14:49;97661.56;;;11.55;63.67
72525;BME280;60547;48.502;8.996;2023-03-22T08:17:17;97663.28;;;11.74;63.58
72525;BME280;60547;48.502;8.996;2023-03-22T08:19:43;97665.28;;;11.86;62.66
72525;BME280;60547;48.502;8.996;2023-03-22T08:22:09;97651.97;;;12.03;62.56
72525;BME280;60547;48.502;8.996;2023-03-22T08:24:36;97661.91;;;12.26;61.96
72525;BME280;60547;48.502;8.996;2023-03-22T08:27:02;97659.63;;;12.34;60.60
72525;BME280;60547;48.502;8.996;2023-03-22T08:29:27;97661.84;;;12.39;60.38
72525;BME280;60547;48.502;8.996;2023-03-22T08:31:53;97660.66;;;12.49;59.40
72525;BME280;60547;48.502;8.996;2023-03-22T08:34:20;97663.97;;;12.56;59.57
72525;BME280;60547;48.502;8.996;2023-03-22T08:36:46;97655.97;;;12.68;58.51
72525;BME280;60547;48.502;8.996;2023-03-22T08:39:11;97652.03;;;12.87;58.47
72525;BME280;60547;48.502;8.996;2023-03-22T08:41:38;97647.13;;;13.00;58.28
72525;BME280;60547;48.502;8.996;2023-03-22T08:44:04;97651.63;;;12.98;57.47
72525;BME280;60547;48.502;8.996;2023-03-22T08:46:30;97642.53;;;13.15;57.55
72525;BME280;60547;48.502;8.996;2023-03-22T08:48:55;97646.81;;;12.98;58.26
72525;BME280;60547;48.502;8.996;2023-03-22T08:51:25;97648.72;;;13.10;57.84
72525;BME280;60547;48.502;8.996;2023-03-22T08:53:51;97637.31;;;13.27;58.14
72525;BME280;60547;48.502;8.996;2023-03-22T08:56:16;97640.50;;;13.56;58.08
72525;BME280;60547;48.502;8.996;2023-03-22T08:58:44;97639.75;;;13.65;57.17
72525;BME280;60547;48.502;8.996;2023-03-22T09:01:12;97634.47;;;13.67;57.05
72525;BME280;60547;48.502;8.996;2023-03-22T09:03:40;97627.50;;;13.80;56.62
72525;BME280;60547;48.502;8.996;2023-03-22T09:06:06;97623.75;;;13.93;56.74
72525;BME280;60547;48.502;8.996;2023-03-22T09:08:32;97613.19;;;14.06;55.99
72525;BME280;60547;48.502;8.996;2023-03-22T09:10:58;97630.13;;;14.20;56.60
72525;BME280;60547;48.502;8.996;2023-03-22T09:13:24;97625.47;;;13.99;55.73
72525;BME280;60547;48.502;8.996;2023-03-22T09:15:50;97617.84;;;14.27;56.76
72525;BME280;60547;48.502;8.996;2023-03-22T09:18:16;97618.78;;;14.42;55.47
72525;BME280;60547;48.502;8.996;2023-03-22T09:20:43;97620.28;;;14.62;55.59
72525;BME280;60547;48.502;8.996;2023-03-22T09:23:11;97618.06;;;14.75;56.36
72525;BME280;60547;48.502;8.996;2023-03-22T09:25:36;97615.84;;;14.88;53.58
72525;BME280;60547;48.502;8.996;2023-03-22T09:28:02;97603.34;;;14.98;53.90
72525;BME280;60547;48.502;8.996;2023-03-22T09:30:28;97613.22;;;15.17;54.02
72525;BME280;60547;48.502;8.996;2023-03-22T09:32:55;97605.50;;;15.36;52.98
72525;BME280;60547;48.502;8.996;2023-03-22T09:35:21;97605.28;;;15.49;52.82
72525;BME280;60547;48.502;8.996;2023-03-22T09:37:47;97597.41;;;15.62;52.55
72525;BME280;60547;48.502;8.996;2023-03-22T09:40:14;97598.31;;;15.68;51.19
72525;BME280;60547;48.502;8.996;2023-03-22T09:42:43;97584.66;;;15.61;51.26
72525;BME280;60547;48.502;8.996;2023-03-22T09:45:16;97599.06;;;15.93;50.34
72525;BME280;60547;48.502;8.996;2023-03-22T09:47:45;97600.47;;;16.12;49.60
72525;BME280;60547;48.502;8.996;2023-03-22T09:50:14;97590.75;;;15.98;49.63
72525;BME280;60547;48.502;8.996;2023-03-22T09:52:43;97585.94;;;16.13;49.80
72525;BME280;60547;48.502;8.996;2023-03-22T09:55:33;97579.38;;;16.31;49.88
72525;BME280;60547;48.502;8.996;2023-03-22T10:00:48;97569.69;;;16.76;47.99
72525;BME280;60547;48.502;8.996;2023-03-22T10:03:27;97569.81;;;16.67;47.06
72525;BME280;60547;48.502;8.996;2023-03-22T10:06:01;97559.72;;;16.75;47.20
72525;BME280;60547;48.502;8.996;2023-03-22T10:11:10;97555.53;;;16.86;48.24
72525;BME280;60547;48.502;8.996;2023-03-22T10:13:42;97550.34;;;17.14;46.86
72525;BME280;60547;48.502;8.996;2023-03-22T10:16:12;97551.25;;;17.25;44.80
72525;BME280;60547;48.502;8.996;2023-03-22T10:18:45;97541.94;;;17.54;45.66
72525;BME280;60547;48.502;8.996;2023-03-22T10:21:15;97540.38;;;17.53;45.03
72525;BME280;60547;48.502;8.996;2023-03-22T10:24:18;97547.00;;;17.91;44.15
72525;BME280;60547;48.502;8.996;2023-03-22T10:26:50;97532.56;;;17.83;44.20
72525;BME280;60547;48.502;8.996;2023-03-22T10:32:17;97529.78;;;18.09;42.27
72525;BME280;60547;48.502;8.996;2023-03-22T10:34:44;97513.59;;;17.78;41.51
72525;BME280;60547;48.502;8.996;2023-03-22T10:37:16;97529.16;;;17.99;41.62
72525;BME280;60547;48.502;8.996;2023-03-22T10:39:48;97524.25;;;18.20;41.89
72525;BME280;60547;48.502;8.996;2023-03-22T10:42:21;97514.09;;;18.60;42.06
72525;BME280;60547;48.502;8.996;2023-03-22T10:45:06;97513.00;;;18.52;40.37
72525;BME280;60547;48.502;8.996;2023-03-22T10:47:47;97506.75;;;18.36;39.99
72525;BME280;60547;48.502;8.996;2023-03-22T10:50:25;97516.03;;;18.74;43.11
72525;BME280;60547;48.502;8.996;2023-03-22T10:53:00;97495.16;;;18.60;39.10
72525;BME280;60547;48.502;8.996;2023-03-22T10:55:27;97500.06;;;19.02;39.36
72525;BME280;60547;48.502;8.996;2023-03-22T11:00:36;97496.88;;;19.86;37.02
72525;BME280;60547;48.502;8.996;2023-03-22T11:03:04;97491.19;;;19.69;36.14
72525;BME280;60547;48.502;8.996;2023-03-22T11:05:29;97493.72;;;19.61;35.65
72525;BME280;60547;48.502;8.996;2023-03-22T11:07:56;97501.50;;;19.83;35.83
72525;BME280;60547;48.502;8.996;2023-03-22T11:10:30;97489.16;;;19.81;34.76
72525;BME280;60547;48.502;8.996;2023-03-22T11:15:37;97490.16;;;19.66;34.68
72525;BME280;60547;48.502;8.996;2023-03-22T11:18:10;97490.34;;;19.52;34.74
72525;BME280;60547;48.502;8.996;2023-03-22T11:20:40;97493.88;;;19.47;35.07
72525;BME280;60547;48.502;8.996;2023-03-22T11:23:06;97491.56;;;19.45;34.22
72525;BME280;60547;48.502;8.996;2023-03-22T11:25:37;97489.63;;;19.62;34.41
72525;BME280;60547;48.502;8.996;2023-03-22T11:28:16;97498.16;;;19.85;34.72
72525;BME280;60547;48.502;8.996;2023-03-22T11:31:17;97489.34;;;19.55;34.92
72525;BME280;60547;48.502;8.996;2023-03-22T11:33:59;97476.63;;;20.15;35.01
72525;BME280;60547;48.502;8.996;2023-03-22T11:36:28;97477.16;;;20.30;34.37
72525;BME280;60547;48.502;8.996;2023-03-22T11:38:59;97473.56;;;20.80;33.84
72525;BME280;60547;48.502;8.996;2023-03-22T11:41:30;97468.19;;;20.66;32.75
72525;BME280;60547;48.502;8.996;2023-03-22T11:44:00;97472.56;;;20.72;32.56
72525;BME280;60547;48.502;8.996;2023-03-22T11:46:28;97467.91;;;20.02;32.88
72525;BME280;60547;48.502;8.996;2023-03-22T11:48:57;97472.25;;;19.92;34.34
72525;BME280;60547;48.502;8.996;2023-03-22T11:51:31;97467.88;;;19.96;33.44
72525;BME280;60547;48.502;8.996;2023-03-22T11:54:15;97463.75;;;19.92;33.13
72525;BME280;60547;48.502;8.996;2023-03-22T11:56:47;97456.56;;;19.80;34.04
72525;BME280;60547;48.502;8.996;2023-03-22T11:59:16;97448.63;;;20.00;33.19
72525;BME280;60547;48.502;8.996;2023-03-22T12:04:42;97427.84;;;20.20;32.24
72525;BME280;60547;48.502;8.996;2023-03-22T12:07:17;97435.81;;;20.61;31.36
72525;BME280;60547;48.502;8.996;2023-03-22T12:09:51;97425.00;;;20.71;32.50
72525;BME280;60547;48.502;8.996;2023-03-22T12:12:24;97416.97;;;20.91;31.42
72525;BME280;60547;48.502;8.996;2023-03-22T12:14:56;97425.13;;;21.23;30.81
72525;BME280;60547;48.502;8.996;2023-03-22T12:17:34;97418.31;;;21.48;30.62
72525;BME280;60547;48.502;8.996;2023-03-22T12:20:06;97409.66;;;21.30;30.40
72525;BME280;60547;48.502;8.996;2023-03-22T12:22:40;97429.50;;;21.13;31.08
72525;BME280;60547;48.502;8.996;2023-03-22T12:25:13;97420.28;;;21.07;30.35
72525;BME280;60547;48.502;8.996;2023-03-22T12:27:44;97413.75;;;21.34;30.96
72525;BME280;60547;48.502;8.996;2023-03-22T12:30:13;97408.03;;;21.45;31.15
72525;BME280;60547;48.502;8.996;2023-03-22T12:32:45;97406.34;;;21.25;32.56
72525;BME280;60547;48.502;8.996;2023-03-22T12:35:16;97401.28;;;21.59;31.34
72525;BME280;60547;48.502;8.996;2023-03-22T12:37:45;97402.88;;;21.49;30.37
72525;BME280;60547;48.502;8.996;2023-03-22T12:40:25;97411.56;;;21.63;30.66
72525;BME280;60547;48.502;8.996;2023-03-22T12:45:37;97387.94;;;22.26;29.59
72525;BME280;60547;48.502;8.996;2023-03-22T12:48:41;97412.25;;;22.15;29.65
72525;BME280;60547;48.502;8.996;2023-03-22T12:51:10;97402.66;;;21.83;29.99
72525;BME280;60547;48.502;8.996;2023-03-22T12:53:45;97395.63;;;22.31;30.19
72525;BME280;60547;48.502;8.996;2023-03-22T12:56:15;97406.44;;;22.32;29.71
72525;BME280;60547;48.502;8.996;2023-03-22T12:58:42;97400.66;;;22.13;29.32
72525;BME280;60547;48.502;8.996;2023-03-22T13:01:20;97381.41;;;22.06;30.37
72525;BME280;60547;48.502;8.996;2023-03-22T13:03:49;97395.94;;;21.45;29.84
72525;BME280;60547;48.502;8.996;2023-03-22T13:06:55;97389.44;;;21.55;29.17
72525;BME280;60547;48.502;8.996;2023-03-22T13:27:39;97371.41;;;21.58;29.14
72525;BME280;60547;48.502;8.996;2023-03-22T13:35:36;97373.63;;;22.12;28.52
72525;BME280;60547;48.502;8.996;2023-03-22T13:38:07;97365.25;;;21.54;30.25
72525;BME280;60547;48.502;8.996;2023-03-22T13:40:48;97362.44;;;21.54;29.83
72525;BME280;60547;48.502;8.996;2023-03-22T14:07:40;97344.16;;;21.55;28.87
72525;BME280;60547;48.502;8.996;2023-03-22T14:10:37;97335.75;;;21.39;29.55
72525;BME280;60547;48.502;8.996;2023-03-22T14:15:55;97324.16;;;21.42;29.58
72525;BME280;60547;48.502;8.996;2023-03-22T14:20:59;97327.28;;;20.75;29.93
72525;BME280;60547;48.502;8.996;2023-03-22T14:23:28;97333.59;;;21.04;30.52
72525;BME280;60547;48.502;8.996;2023-03-22T14:26:03;97335.28;;;21.29;30.44
72525;BME280;60547;48.502;8.996;2023-03-22T14:28:33;97327.47;;;21.46;30.29
72525;BME280;60547;48.502;8.996;2023-03-22T14:31:00;97322.53;;;21.52;29.98
72525;BME280;60547;48.502;8.996;2023-03-22T14:33:26;97327.56;;;21.71;29.89
72525;BME280;60547;48.502;8.996;2023-03-22T14:36:00;97330.97;;;21.64;29.74
72525;BME280;60547;48.502;8.996;2023-03-22T14:38:34;97329.97;;;21.55;30.19
72525;BME280;60547;48.502;8.996;2023-03-22T14:41:23;97326.50;;;21.38;29.55
72525;BME280;60547;48.502;8.996;2023-03-22T14:44:01;97332.84;;;20.98;29.75
72525;BME280;60547;48.502;8.996;2023-03-22T14:46:32;97326.81;;;20.60;31.31
72525;BME280;60547;48.502;8.996;2023-03-22T14:48:59;97320.41;;;20.54;30.99
72525;BME280;60547;48.502;8.996;2023-03-22T14:51:34;97315.19;;;20.80;31.11
72525;BME280;60547;48.502;8.996;2023-03-22T14:54:09;97318.34;;;20.60;31.47
72525;BME280;60547;48.502;8.996;2023-03-22T14:56:40;97315.22;;;20.75;32.09
72525;BME280;60547;48.502;8.996;2023-03-22T14:59:11;97318.72;;;20.92;31.68